Time;durP1;ratioP1;P1;durP2;ratioP2;P2;SDS_P1;SDS_P2;PMS_P1;PMS_P2;Temp;Humidity;BMP_temperature;BMP_pressure;BME280_temperature;BME280_humidity;BME280_pressure;Samples;Min_cycle;Max_cycle;Signal;HPM_P1;HPM_P2
2023/03/04 00:02:02;;;;;;;;;;;;;;;5.66;84.07;102820.56;5064755;28;20432;-74
2023/03/04 00:04:27;;;;;;;;;;;;;;;5.64;84.62;102827.97;5068309;28;20402;-74
2023/03/04 00:06:52;;;;;;;;;;;;;;;5.68;84.37;102829.47;5068535;28;19923;-75
2023/03/04 00:09:18;;;;;;;;;;;;;;;5.65;84.07;102829.69;5068077;28;19920;-75
2023/03/04 00:11:43;;;;;;;;;;;;;;;5.70;84.05;102832.94;5067491;28;19936;-76
2023/03/04 00:14:08;;;;;;;;;;;;;;;5.69;83.01;102828.47;5061770;28;20442;-75
2023/03/04 00:16:33;;;;;;;;;;;;;;;5.68;84.01;102826.75;5062552;28;20337;-75
2023/03/04 00:18:59;;;;;;;;;;;;;;;5.72;83.91;102830.97;5067995;28;19923;-75
2023/03/04 00:21:24;;;;;;;;;;;;;;;5.66;84.44;102826.84;5062871;28;19928;-75
2023/03/04 00:23:51;;;;;;;;;;;;;;;5.69;84.01;102828.47;5064591;28;19920;-75
2023/03/04 00:26:16;;;;;;;;;;;;;;;5.68;84.23;102824.91;5062609;28;20288;-75
2023/03/04 00:28:42;;;;;;;;;;;;;;;5.62;84.49;102835.38;5065432;28;19924;-75
2023/03/04 00:31:07;;;;;;;;;;;;;;;5.59;84.50;102830.16;5065914;28;19920;-75
2023/03/04 00:33:33;;;;;;;;;;;;;;;5.63;83.86;102829.84;5066196;28;19920;-75
2023/03/04 00:35:59;;;;;;;;;;;;;;;5.62;84.03;102829.94;5068258;28;20360;-75
2023/03/04 00:38:25;;;;;;;;;;;;;;;5.67;83.78;102825.88;5063765;28;19916;-75
2023/03/04 00:40:51;;;;;;;;;;;;;;;5.65;83.86;102824.25;5064234;28;19917;-75
2023/03/04 00:43:17;;;;;;;;;;;;;;;5.64;84.82;102817.09;5058783;28;19917;-76
2023/03/04 00:45:42;;;;;;;;;;;;;;;5.62;84.99;102824.50;5061766;28;19927;-75
2023/03/04 00:48:07;;;;;;;;;;;;;;;5.56;84.99;102822.25;5062193;28;19981;-75
2023/03/04 00:50:33;;;;;;;;;;;;;;;5.57;85.18;102821.28;5068608;28;19916;-74
2023/03/04 00:52:58;;;;;;;;;;;;;;;5.60;85.79;102823.78;5066648;28;19925;-74
2023/03/04 00:55:23;;;;;;;;;;;;;;;5.54;85.80;102816.06;5071659;28;20344;-75
2023/03/04 00:57:49;;;;;;;;;;;;;;;5.54;85.67;102826.94;5067986;28;19917;-75
2023/03/04 01:00:14;;;;;;;;;;;;;;;5.56;85.56;102824.97;5062992;28;19917;-75
2023/03/04 01:02:39;;;;;;;;;;;;;;;5.55;85.84;102824.09;5064943;28;19921;-75
2023/03/04 01:05:05;;;;;;;;;;;;;;;5.55;86.11;102824.09;5061846;28;19944;-75
2023/03/04 01:07:30;;;;;;;;;;;;;;;5.56;85.79;102828.53;5069226;28;19917;-75
2023/03/04 01:09:56;;;;;;;;;;;;;;;5.52;86.31;102829.78;5048964;28;19959;-75
2023/03/04 01:12:21;;;;;;;;;;;;;;;5.53;86.01;102830.63;5055444;28;19955;-75
2023/03/04 01:14:46;;;;;;;;;;;;;;;5.52;86.28;102824.34;5045275;28;19925;-74
2023/03/04 01:17:11;;;;;;;;;;;;;;;5.54;85.68;102825.09;5066747;28;20011;-74
2023/03/04 01:19:37;;;;;;;;;;;;;;;5.54;86.62;102819.66;5064607;28;20256;-75
2023/03/04 01:22:02;;;;;;;;;;;;;;;5.55;86.04;102823.25;5052679;28;19965;-74
2023/03/04 01:24:29;;;;;;;;;;;;;;;5.59;86.71;102830.16;5066368;28;19946;-74
2023/03/04 01:26:55;;;;;;;;;;;;;;;5.58;85.98;102823.88;5068123;28;19923;-75
2023/03/04 01:29:20;;;;;;;;;;;;;;;5.55;86.50;102823.25;5061252;28;19916;-74
2023/03/04 01:31:45;;;;;;;;;;;;;;;5.52;87.07;102818.03;5066187;28;20031;-75
2023/03/04 01:34:12;;;;;;;;;;;;;;;5.50;87.71;102810.00;5063824;28;19991;-75
2023/03/04 01:36:37;;;;;;;;;;;;;;;5.55;87.09;102812.38;5065325;28;19916;-75
2023/03/04 01:39:03;;;;;;;;;;;;;;;5.56;86.70;102801.38;5067557;28;20307;-75
2023/03/04 01:41:28;;;;;;;;;;;;;;;5.52;87.55;102804.44;5063881;28;19966;-75
2023/03/04 01:43:59;;;;;;;;;;;;;;;5.52;87.39;102799.00;5064502;28;19990;-74
2023/03/04 01:46:25;;;;;;;;;;;;;;;5.53;87.49;102793.47;5066971;28;19924;-75
2023/03/04 01:48:50;;;;;;;;;;;;;;;5.50;87.21;102793.69;5062192;28;19951;-74
2023/03/04 01:51:16;;;;;;;;;;;;;;;5.53;88.02;102784.44;5068139;28;19942;-75
2023/03/04 01:53:42;;;;;;;;;;;;;;;5.52;87.73;102783.59;5064997;28;20399;-75
2023/03/04 01:56:10;;;;;;;;;;;;;;;5.47;88.79;102783.06;5065521;28;19916;-74
2023/03/04 01:58:35;;;;;;;;;;;;;;;5.54;88.85;102781.59;5067970;28;19916;-74
2023/03/04 02:01:00;;;;;;;;;;;;;;;5.54;87.56;102778.88;5052457;28;20329;-75
2023/03/04 02:03:26;;;;;;;;;;;;;;;5.55;86.67;102777.03;5067528;28;19924;-75
2023/03/04 02:05:52;;;;;;;;;;;;;;;5.52;86.53;102770.00;5064157;28;19931;-74
2023/03/04 02:08:18;;;;;;;;;;;;;;;5.61;86.68;102773.84;5067637;28;19920;-74
2023/03/04 02:10:44;;;;;;;;;;;;;;;5.57;86.62;102769.63;5062614;28;20316;-75
2023/03/04 02:13:10;;;;;;;;;;;;;;;5.52;86.37;102767.28;5069878;28;19998;-75
2023/03/04 02:15:35;;;;;;;;;;;;;;;5.51;87.58;102759.25;5063801;28;20411;-75
2023/03/04 02:18:00;;;;;;;;;;;;;;;5.56;86.85;102757.88;5051659;28;19916;-75
2023/03/04 02:20:29;;;;;;;;;;;;;;;5.52;86.83;102766.41;5065328;28;20385;-74
2023/03/04 02:23:03;;;;;;;;;;;;;;;5.56;87.03;102755.16;5085072;28;19996;-74
2023/03/04 02:25:32;;;;;;;;;;;;;;;5.56;87.54;102754.31;5066215;28;19924;-75
2023/03/04 02:27:57;;;;;;;;;;;;;;;5.60;87.20;102744.94;5068019;28;19916;-75
2023/03/04 02:30:24;;;;;;;;;;;;;;;5.52;87.27;102750.09;5062331;28;20226;-75
2023/03/04 02:32:50;;;;;;;;;;;;;;;5.51;87.48;102746.50;5071847;28;20338;-75
2023/03/04 02:35:16;;;;;;;;;;;;;;;5.49;87.60;102744.88;5068178;28;19919;-74
2023/03/04 02:37:42;;;;;;;;;;;;;;;5.49;87.47;102742.16;5048669;28;19960;-75
2023/03/04 02:40:13;;;;;;;;;;;;;;;5.58;86.64;102747.78;5064563;28;19950;-75
2023/03/04 02:42:38;;;;;;;;;;;;;;;5.52;87.10;102737.38;5069563;28;19942;-75
2023/03/04 02:45:03;;;;;;;;;;;;;;;5.52;87.37;102739.22;5064250;28;20034;-75
2023/03/04 02:47:30;;;;;;;;;;;;;;;5.47;87.66;102736.88;5069009;28;20011;-75
2023/03/04 02:49:55;;;;;;;;;;;;;;;5.48;87.63;102732.28;5068294;28;19951;-75
2023/03/04 02:52:22;;;;;;;;;;;;;;;5.50;87.56;102730.34;5070660;28;20394;-75
2023/03/04 02:54:47;;;;;;;;;;;;;;;5.52;87.36;102731.06;5068122;28;19920;-74
2023/03/04 02:57:13;;;;;;;;;;;;;;;5.56;86.84;102738.84;5064617;28;19931;-75
2023/03/04 02:59:41;;;;;;;;;;;;;;;5.59;87.12;102726.88;5064039;28;20311;-74
2023/03/04 03:02:08;;;;;;;;;;;;;;;5.57;86.72;102734.28;5049342;28;19917;-75
2023/03/04 03:04:35;;;;;;;;;;;;;;;5.55;87.68;102730.84;5071295;28;20292;-75
2023/03/04 03:07:01;;;;;;;;;;;;;;;5.55;87.12;102731.69;5063322;28;19920;-75
2023/03/04 03:09:26;;;;;;;;;;;;;;;5.56;87.58;102730.69;5063698;28;19988;-75
2023/03/04 03:11:52;;;;;;;;;;;;;;;5.60;87.40;102728.63;5062178;28;19951;-75
2023/03/04 03:14:18;;;;;;;;;;;;;;;5.54;87.93;102723.66;5065170;28;20368;-74
2023/03/04 03:16:43;;;;;;;;;;;;;;;5.55;87.89;102722.69;5061152;28;20054;-74
2023/03/04 03:19:08;;;;;;;;;;;;;;;5.56;86.75;102727.13;5047312;28;19916;-67
2023/03/04 03:21:33;;;;;;;;;;;;;;;5.56;86.18;102724.41;5046430;28;19959;-67
2023/03/04 03:23:59;;;;;;;;;;;;;;;5.52;86.62;102725.63;5069450;28;19920;-68
2023/03/04 03:26:24;;;;;;;;;;;;;;;5.48;87.27;102718.69;5064315;28;20361;-68
2023/03/04 03:28:49;;;;;;;;;;;;;;;5.51;86.24;102718.47;5067084;28;20318;-68
2023/03/04 03:31:14;;;;;;;;;;;;;;;5.53;86.44;102717.38;5059233;28;19978;-67
2023/03/04 03:33:40;;;;;;;;;;;;;;;5.59;85.59;102719.59;5047632;28;20406;-67
2023/03/04 03:36:05;;;;;;;;;;;;;;;5.48;86.92;102711.41;5045243;28;19917;-74
2023/03/04 03:38:31;;;;;;;;;;;;;;;5.48;86.21;102719.56;5056220;28;19923;-74
2023/03/04 03:40:56;;;;;;;;;;;;;;;5.52;86.08;102717.47;5062086;28;20051;-74
2023/03/04 03:43:21;;;;;;;;;;;;;;;5.51;85.57;102715.75;5067594;28;20014;-74
2023/03/04 03:45:47;;;;;;;;;;;;;;;5.51;86.21;102713.03;5064848;28;19928;-74
2023/03/04 03:48:12;;;;;;;;;;;;;;;5.50;86.29;102708.59;5065249;28;20003;-74
2023/03/04 03:50:38;;;;;;;;;;;;;;;5.56;86.15;102717.09;5062080;28;19932;-74
2023/03/04 03:53:03;;;;;;;;;;;;;;;5.56;86.18;102711.66;5063087;28;19938;-73
2023/03/04 03:55:28;;;;;;;;;;;;;;;5.54;86.24;102719.09;5060633;28;19942;-74
2023/03/04 03:57:53;;;;;;;;;;;;;;;5.52;86.02;102714.75;5053503;28;19916;-74
2023/03/04 04:00:19;;;;;;;;;;;;;;;5.53;86.58;102713.78;5064613;28;19995;-74
2023/03/04 04:02:44;;;;;;;;;;;;;;;5.53;86.89;102719.19;5051480;28;19921;-74
2023/03/04 04:05:10;;;;;;;;;;;;;;;5.57;86.14;102718.00;5069000;28;19928;-74
2023/03/04 04:07:36;;;;;;;;;;;;;;;5.50;87.18;102717.59;5048156;28;19924;-74
2023/03/04 04:10:02;;;;;;;;;;;;;;;5.48;87.65;102718.69;5045691;28;20380;-74
2023/03/04 04:12:27;;;;;;;;;;;;;;;5.48;87.67;102722.28;5063220;28;19920;-74
2023/03/04 04:14:52;;;;;;;;;;;;;;;5.51;87.69;102722.03;5063771;28;19982;-75
2023/03/04 04:17:18;;;;;;;;;;;;;;;5.53;87.75;102721.91;5065445;28;19927;-75
2023/03/04 04:19:44;;;;;;;;;;;;;;;5.50;88.83;102722.19;5065755;28;19924;-74
2023/03/04 04:22:14;;;;;;;;;;;;;;;5.53;88.31;102720.09;5045780;28;20379;-74
2023/03/04 04:24:39;;;;;;;;;;;;;;;5.52;89.15;102725.63;5062795;28;19942;-74
2023/03/04 04:27:05;;;;;;;;;;;;;;;5.54;87.80;102727.25;5068421;28;19917;-75
2023/03/04 04:29:30;;;;;;;;;;;;;;;5.52;88.75;102722.91;5075421;28;19916;-74
2023/03/04 04:31:56;;;;;;;;;;;;;;;5.51;87.81;102721.19;5073867;28;19917;-74
2023/03/04 04:34:21;;;;;;;;;;;;;;;5.52;87.50;102720.19;5069778;28;19967;-74
2023/03/04 04:36:47;;;;;;;;;;;;;;;5.53;85.86;102716.50;5073179;28;20292;-74
2023/03/04 04:39:13;;;;;;;;;;;;;;;5.58;85.29;102720.59;5070029;28;19923;-74
2023/03/04 04:41:39;;;;;;;;;;;;;;;5.56;86.58;102719.81;5063103;28;19920;-73
2023/03/04 04:44:05;;;;;;;;;;;;;;;5.51;85.96;102722.03;5068583;28;19924;-75
2023/03/04 04:46:30;;;;;;;;;;;;;;;5.54;85.04;102721.81;5070149;28;20426;-74
2023/03/04 04:48:56;;;;;;;;;;;;;;;5.49;85.45;102724.03;5064936;28;20027;-75
2023/03/04 04:51:21;;;;;;;;;;;;;;;5.46;86.29;102728.81;5064985;28;19917;-75
2023/03/04 04:53:47;;;;;;;;;;;;;;;5.47;86.32;102736.00;5069113;28;19920;-76
2023/03/04 04:56:18;;;;;;;;;;;;;;;5.47;86.66;102728.72;5056352;28;19961;-73
2023/03/04 04:58:44;;;;;;;;;;;;;;;5.56;86.71;102735.28;5067446;28;19916;-75
2023/03/04 05:01:10;;;;;;;;;;;;;;;5.49;86.54;102736.72;5067492;28;20480;-75
2023/03/04 05:03:36;;;;;;;;;;;;;;;5.49;86.51;102734.88;5065908;28;19916;-74
2023/03/04 05:06:02;;;;;;;;;;;;;;;5.50;86.23;102739.34;5069478;28;20463;-74
2023/03/04 05:08:27;;;;;;;;;;;;;;;5.49;87.31;102732.16;5064944;28;19921;-74
2023/03/04 05:10:52;;;;;;;;;;;;;;;5.49;87.25;102737.59;5065682;28;19919;-74
2023/03/04 05:13:18;;;;;;;;;;;;;;;5.50;86.74;102733.91;5071935;28;19921;-75
2023/03/04 05:15:44;;;;;;;;;;;;;;;5.51;86.75;102741.06;5069205;28;20030;-75
2023/03/04 05:18:09;;;;;;;;;;;;;;;5.52;85.95;102739.22;5065664;28;19970;-74
2023/03/04 05:20:35;;;;;;;;;;;;;;;5.47;86.00;102733.28;5045227;28;19917;-74
2023/03/04 05:23:01;;;;;;;;;;;;;;;5.48;84.77;102735.00;5072284;28;19969;-75
2023/03/04 05:25:26;;;;;;;;;;;;;;;5.46;85.55;102728.81;5046317;28;19932;-74
2023/03/04 05:27:51;;;;;;;;;;;;;;;5.43;84.60;102737.19;5068626;28;19955;-75
2023/03/04 05:30:16;;;;;;;;;;;;;;;5.46;84.76;102728.81;5066053;28;19927;-75
2023/03/04 05:32:42;;;;;;;;;;;;;;;5.44;84.69;102728.09;5069890;28;19924;-74
2023/03/04 05:35:07;;;;;;;;;;;;;;;5.40;85.08;102726.59;5064272;28;19912;-74
2023/03/04 05:37:33;;;;;;;;;;;;;;;5.43;85.76;102731.75;5067556;28;20011;-75
2023/03/04 05:39:58;;;;;;;;;;;;;;;5.42;85.95;102736.34;5053366;28;19920;-75
2023/03/04 05:42:23;;;;;;;;;;;;;;;5.40;85.68;102729.31;5047490;28;19920;-74
2023/03/04 05:44:49;;;;;;;;;;;;;;;5.43;85.94;102742.63;5070856;28;20013;-73
2023/03/04 05:47:15;;;;;;;;;;;;;;;5.37;86.36;102741.28;5059471;28;19946;-72
2023/03/04 05:49:41;;;;;;;;;;;;;;;5.35;87.54;102739.66;5067849;28;20005;-75
2023/03/04 05:52:06;;;;;;;;;;;;;;;5.37;87.42;102737.69;5068627;28;19963;-75
2023/03/04 05:54:32;;;;;;;;;;;;;;;5.37;87.29;102738.56;5073190;28;19919;-75
2023/03/04 05:56:57;;;;;;;;;;;;;;;5.32;88.35;102732.59;5062314;28;20434;-75
2023/03/04 05:59:23;;;;;;;;;;;;;;;5.31;88.29;102739.03;5072817;28;20006;-75
2023/03/04 06:01:49;;;;;;;;;;;;;;;5.33;88.05;102736.16;5051920;28;19920;-75
2023/03/04 06:04:14;;;;;;;;;;;;;;;5.33;88.96;102742.47;5066182;28;19916;-75
2023/03/04 06:06:40;;;;;;;;;;;;;;;5.32;88.56;102734.44;5075379;28;19920;-75
2023/03/04 06:09:05;;;;;;;;;;;;;;;5.27;88.75;102734.81;5073087;28;19928;-76
2023/03/04 06:11:30;;;;;;;;;;;;;;;5.24;89.42;102726.03;5052180;28;19948;-75
2023/03/04 06:13:55;;;;;;;;;;;;;;;5.28;90.06;102741.13;5066449;28;20013;-75
2023/03/04 06:16:21;;;;;;;;;;;;;;;5.23;90.67;102737.88;5067154;28;19978;-76
2023/03/04 06:18:46;;;;;;;;;;;;;;;5.28;91.28;102743.84;5067727;28;19920;-76
2023/03/04 06:21:11;;;;;;;;;;;;;;;5.24;92.94;102736.91;5065495;28;19920;-75
2023/03/04 06:23:36;;;;;;;;;;;;;;;5.20;93.96;102733.56;5070731;28;19979;-75
2023/03/04 06:26:02;;;;;;;;;;;;;;;5.20;94.00;102743.53;5061462;28;20067;-75
2023/03/04 06:28:27;;;;;;;;;;;;;;;5.15;94.49;102737.59;5074078;28;19916;-75
2023/03/04 06:30:54;;;;;;;;;;;;;;;5.15;94.56;102737.59;5067281;28;19951;-75
2023/03/04 06:33:19;;;;;;;;;;;;;;;5.14;95.87;102744.00;5064104;28;20218;-75
2023/03/04 06:35:44;;;;;;;;;;;;;;;5.16;95.69;102739.31;5064452;28;19943;-76
2023/03/04 06:38:09;;;;;;;;;;;;;;;5.12;95.45;102741.41;5075331;28;20295;-76
2023/03/04 06:40:35;;;;;;;;;;;;;;;5.07;96.16;102740.88;5072372;28;19917;-74
2023/03/04 06:43:00;;;;;;;;;;;;;;;5.12;95.83;102737.84;5066607;28;20371;-75
2023/03/04 06:45:25;;;;;;;;;;;;;;;5.14;96.40;102736.69;5071194;28;19920;-75
2023/03/04 06:47:50;;;;;;;;;;;;;;;5.05;96.64;102733.84;5074971;28;20367;-75
2023/03/04 06:50:16;;;;;;;;;;;;;;;5.10;96.81;102732.50;5070204;28;19920;-76
2023/03/04 06:52:41;;;;;;;;;;;;;;;5.12;96.72;102733.25;5070118;28;19965;-75
2023/03/04 06:55:07;;;;;;;;;;;;;;;5.18;96.45;102740.94;5056936;28;19920;-75
2023/03/04 06:57:32;;;;;;;;;;;;;;;5.16;96.09;102740.19;5080265;28;20419;-75
2023/03/04 06:59:57;;;;;;;;;;;;;;;5.15;95.59;102740.31;5053275;28;19927;-75
2023/03/04 07:02:23;;;;;;;;;;;;;;;5.16;96.53;102755.59;5066549;28;19924;-75
2023/03/04 07:04:48;;;;;;;;;;;;;;;5.16;96.12;102748.34;5056438;28;19926;-74
2023/03/04 07:07:13;;;;;;;;;;;;;;;5.15;97.06;102760.19;5065636;28;19942;-75
2023/03/04 07:09:39;;;;;;;;;;;;;;;5.18;96.41;102754.50;5060779;28;20392;-75
2023/03/04 07:12:04;;;;;;;;;;;;;;;5.20;96.32;102758.00;5053288;28;19920;-74
2023/03/04 07:14:29;;;;;;;;;;;;;;;5.24;95.81;102755.91;5064613;28;20312;-74
2023/03/04 07:16:55;;;;;;;;;;;;;;;5.21;96.16;102758.84;5066734;28;19947;-75
2023/03/04 07:19:20;;;;;;;;;;;;;;;5.22;96.32;102757.84;5063293;28;19916;-75
2023/03/04 07:21:46;;;;;;;;;;;;;;;5.23;96.66;102762.34;5050846;28;20377;-75
2023/03/04 07:24:12;;;;;;;;;;;;;;;5.25;96.02;102771.22;5054865;28;19928;-74
2023/03/04 07:26:38;;;;;;;;;;;;;;;5.22;96.41;102772.31;5066784;28;20300;-74
2023/03/04 07:29:03;;;;;;;;;;;;;;;5.22;95.99;102771.44;5068348;28;19917;-75
2023/03/04 07:31:30;;;;;;;;;;;;;;;5.24;96.87;102774.94;5065100;28;19946;-75
2023/03/04 07:33:59;;;;;;;;;;;;;;;5.28;96.93;102768.28;5069195;28;19943;-74
2023/03/04 07:36:25;;;;;;;;;;;;;;;5.33;96.41;102772.38;5025631;28;19963;-74
2023/03/04 07:38:51;;;;;;;;;;;;;;;5.33;96.02;102780.53;5050092;28;19963;-74
2023/03/04 07:41:16;;;;;;;;;;;;;;;5.33;96.75;102779.63;5063959;28;19916;-74
2023/03/04 07:43:42;;;;;;;;;;;;;;;5.37;97.11;102786.59;5064696;28;19923;-74
2023/03/04 07:46:08;;;;;;;;;;;;;;;5.35;97.12;102786.69;5065373;28;19921;-74
2023/03/04 07:48:33;;;;;;;;;;;;;;;5.43;97.03;102791.56;5064741;28;19923;-73
2023/03/04 07:51:09;;;;;;;;;;;;;;;5.46;97.12;102789.47;5054517;28;19928;-74
2023/03/04 07:53:36;;;;;;;;;;;;;;;5.48;97.09;102789.34;5064990;28;20422;-74
2023/03/04 07:56:01;;;;;;;;;;;;;;;5.49;97.30;102783.81;5055630;28;19932;-74
2023/03/04 07:58:27;;;;;;;;;;;;;;;5.52;97.14;102801.72;5073813;28;19920;-75
2023/03/04 08:00:52;;;;;;;;;;;;;;;5.60;97.29;102807.47;5073764;28;19966;-73
2023/03/04 08:03:17;;;;;;;;;;;;;;;5.72;96.40;102809.22;5073696;28;19920;-74
2023/03/04 08:05:42;;;;;;;;;;;;;;;5.72;96.16;102804.63;5079519;28;19927;-74
2023/03/04 08:08:08;;;;;;;;;;;;;;;5.74;96.16;102808.13;5068666;28;20007;-74
2023/03/04 08:10:33;;;;;;;;;;;;;;;5.83;95.44;102812.00;5080814;28;19920;-74
2023/03/04 08:12:58;;;;;;;;;;;;;;;5.88;95.87;102813.38;5078442;28;19920;-75
2023/03/04 08:15:26;;;;;;;;;;;;;;;5.93;97.17;102813.03;5074012;28;19920;-74
2023/03/04 08:17:51;;;;;;;;;;;;;;;5.86;98.27;102804.47;5072324;28;19959;-74
2023/03/04 08:20:16;;;;;;;;;;;;;;;5.88;99.85;102809.81;5073633;28;19928;-74
2023/03/04 08:22:42;;;;;;;;;;;;;;;5.88;99.77;102805.22;5066214;28;19917;-73
2023/03/04 08:25:07;;;;;;;;;;;;;;;5.86;100.00;102806.31;5073484;28;20376;-73
2023/03/04 08:27:33;;;;;;;;;;;;;;;5.85;100.00;102810.03;5053509;28;19924;-74
2023/03/04 08:29:59;;;;;;;;;;;;;;;5.92;100.00;102797.72;5075986;28;20339;-73
2023/03/04 08:32:24;;;;;;;;;;;;;;;5.99;100.00;102796.25;5069278;28;19958;-74
2023/03/04 08:34:49;;;;;;;;;;;;;;;6.04;100.00;102800.31;5069284;28;19971;-73
2023/03/04 08:37:14;;;;;;;;;;;;;;;6.11;100.00;102806.16;5070040;28;20380;-74
2023/03/04 08:39:40;;;;;;;;;;;;;;;6.16;99.83;102798.50;5074409;28;20007;-74
2023/03/04 08:42:05;;;;;;;;;;;;;;;6.33;97.93;102800.72;5052125;28;19931;-74
2023/03/04 08:44:30;;;;;;;;;;;;;;;6.35;98.41;102798.78;5075919;28;19920;-74
2023/03/04 08:46:56;;;;;;;;;;;;;;;6.46;97.70;102794.19;5070536;28;19931;-75
2023/03/04 08:49:21;;;;;;;;;;;;;;;6.56;97.76;102797.91;5049315;28;20017;-74
2023/03/04 08:51:46;;;;;;;;;;;;;;;6.60;96.56;102798.50;5079109;28;19948;-74
2023/03/04 08:54:11;;;;;;;;;;;;;;;6.61;95.71;102797.53;5070125;28;20322;-74
2023/03/04 08:56:36;;;;;;;;;;;;;;;6.65;95.64;102793.56;5051497;28;19982;-74
2023/03/04 08:59:02;;;;;;;;;;;;;;;6.58;95.89;102789.63;5072856;28;19920;-74
2023/03/04 09:01:27;;;;;;;;;;;;;;;6.59;96.54;102794.94;5070495;28;20036;-74
2023/03/04 09:03:52;;;;;;;;;;;;;;;6.70;96.90;102799.50;5079310;28;19999;-74
2023/03/04 09:06:18;;;;;;;;;;;;;;;6.80;95.17;102795.03;5072806;28;19929;-74
2023/03/04 09:08:43;;;;;;;;;;;;;;;6.88;94.40;102792.56;5078839;28;20007;-74
2023/03/04 09:11:09;;;;;;;;;;;;;;;6.83;94.73;102783.91;5075305;28;19931;-74
2023/03/04 09:13:35;;;;;;;;;;;;;;;6.86;94.59;102781.81;5066889;28;19922;-74
2023/03/04 09:16:00;;;;;;;;;;;;;;;7.01;93.70;102786.00;5076033;28;19916;-74
2023/03/04 09:18:26;;;;;;;;;;;;;;;7.21;93.05;102790.63;5053399;28;20454;-74
2023/03/04 09:20:52;;;;;;;;;;;;;;;7.19;92.06;102783.56;5071964;28;20069;-75
2023/03/04 09:23:17;;;;;;;;;;;;;;;7.25;92.73;102789.38;5070999;28;19921;-74
2023/03/04 09:25:43;;;;;;;;;;;;;;;7.52;91.32;102775.28;5073716;28;19920;-74
2023/03/04 09:28:09;;;;;;;;;;;;;;;7.55;90.44;102778.63;5069141;28;20382;-75
2023/03/04 09:30:34;;;;;;;;;;;;;;;7.67;90.82;102777.56;5074408;28;19990;-75
2023/03/04 09:33:00;;;;;;;;;;;;;;;7.63;88.47;102772.53;5075151;28;20336;-74
2023/03/04 09:35:25;;;;;;;;;;;;;;;7.54;89.21;102770.56;5071555;28;20007;-74
2023/03/04 09:37:51;;;;;;;;;;;;;;;7.46;89.72;102773.06;5055078;28;20017;-74
2023/03/04 09:40:40;;;;;;;;;;;;;;;7.36;90.76;102772.13;5063004;28;20007;-74
2023/03/04 09:43:10;;;;;;;;;;;;;;;7.22;91.71;102780.59;5049715;28;19916;-74
2023/03/04 09:45:45;;;;;;;;;;;;;;;7.13;94.82;102775.91;5073133;28;19925;-74
2023/03/04 09:48:16;;;;;;;;;;;;;;;7.10;97.14;102781.63;5073448;28;19931;-74
2023/03/04 09:50:45;;;;;;;;;;;;;;;7.12;98.51;102779.63;5065726;28;19917;-74
2023/03/04 09:53:22;;;;;;;;;;;;;;;7.26;98.96;102773.91;5062354;28;19916;-74
2023/03/04 09:55:51;;;;;;;;;;;;;;;7.43;99.99;102767.88;5069607;28;19973;-74
2023/03/04 09:58:25;;;;;;;;;;;;;;;7.73;99.57;102774.31;5056609;28;20391;-74
2023/03/04 10:00:54;;;;;;;;;;;;;;;7.94;98.25;102766.13;5080515;28;19936;-74
2023/03/04 10:03:21;;;;;;;;;;;;;;;7.88;96.48;102763.94;5065576;28;20371;-73
2023/03/04 10:05:53;;;;;;;;;;;;;;;7.84;95.79;102768.78;5070049;28;19939;-74
2023/03/04 10:08:31;;;;;;;;;;;;;;;7.73;95.35;102770.69;5066584;28;19928;-74
2023/03/04 10:10:58;;;;;;;;;;;;;;;7.87;96.03;102762.19;5055403;28;19916;-74
2023/03/04 10:13:35;;;;;;;;;;;;;;;7.68;96.54;102762.94;5066345;28;19924;-74
2023/03/04 10:16:02;;;;;;;;;;;;;;;7.35;98.86;102770.38;5065794;28;19916;-74
2023/03/04 10:18:34;;;;;;;;;;;;;;;7.27;100.00;102772.91;5072278;28;19927;-74
2023/03/04 10:21:18;;;;;;;;;;;;;;;7.09;100.00;102774.41;5067623;28;19916;-74
2023/03/04 10:23:44;;;;;;;;;;;;;;;7.07;100.00;102774.59;5060558;28;19959;-74
2023/03/04 10:26:19;;;;;;;;;;;;;;;6.94;100.00;102775.72;5066658;28;19970;-74
2023/03/04 10:28:45;;;;;;;;;;;;;;;7.06;100.00;102774.69;5066194;28;20015;-74
2023/03/04 10:31:13;;;;;;;;;;;;;;;7.12;100.00;102769.63;5066851;28;20054;-74
2023/03/04 10:33:39;;;;;;;;;;;;;;;7.25;100.00;102772.16;5083777;28;19957;-74
2023/03/04 10:36:23;;;;;;;;;;;;;;;7.34;100.00;102772.25;5071446;28;19927;-74
2023/03/04 10:38:52;;;;;;;;;;;;;;;7.39;100.00;102775.47;5064659;28;20367;-74
2023/03/04 10:41:23;;;;;;;;;;;;;;;7.48;100.00;102765.63;5046753;28;19928;-74
2023/03/04 10:43:50;;;;;;;;;;;;;;;7.50;100.00;102764.50;5053732;28;20353;-74
2023/03/04 10:46:15;;;;;;;;;;;;;;;7.38;100.00;102770.97;5065901;28;19920;-74
2023/03/04 10:48:42;;;;;;;;;;;;;;;7.34;100.00;102771.38;5065456;28;20023;-74
2023/03/04 10:51:12;;;;;;;;;;;;;;;7.41;100.00;102764.41;5064535;28;19984;-74
2023/03/04 10:53:41;;;;;;;;;;;;;;;7.37;100.00;102768.41;5065973;28;19942;-74
2023/03/04 10:56:27;;;;;;;;;;;;;;;7.63;100.00;102762.47;5069921;28;20390;-74
2023/03/04 10:58:52;;;;;;;;;;;;;;;7.82;100.00;102753.56;5052383;28;21019;-74
2023/03/04 11:01:24;;;;;;;;;;;;;;;7.58;100.00;102756.53;5057132;28;19969;-74
2023/03/04 11:03:49;;;;;;;;;;;;;;;7.58;100.00;102751.06;5071266;28;20403;-74
2023/03/04 11:06:14;;;;;;;;;;;;;;;7.63;100.00;102756.16;5066331;28;20065;-74
2023/03/04 11:08:40;;;;;;;;;;;;;;;7.73;100.00;102743.44;5069071;28;19920;-74
2023/03/04 11:11:20;;;;;;;;;;;;;;;7.84;100.00;102744.25;5058397;28;20002;-75
2023/03/04 11:13:56;;;;;;;;;;;;;;;7.78;100.00;102736.59;5070441;28;19925;-74
2023/03/04 11:16:29;;;;;;;;;;;;;;;7.93;100.00;102728.94;5060666;28;19917;-75
2023/03/04 11:19:02;;;;;;;;;;;;;;;8.13;100.00;102728.03;5051655;28;19923;-75
2023/03/04 11:21:29;;;;;;;;;;;;;;;8.25;100.00;102730.59;5068935;28;19928;-75
2023/03/04 11:24:06;;;;;;;;;;;;;;;8.50;100.00;102726.53;5072761;28;19923;-75
2023/03/04 11:26:44;;;;;;;;;;;;;;;8.96;100.00;102727.66;5059051;28;20372;-76
2023/03/04 11:29:30;;;;;;;;;;;;;;;8.98;98.72;102719.31;5062893;28;20078;-76
2023/03/04 11:32:00;;;;;;;;;;;;;;;8.89;97.73;102721.03;5062206;28;19996;-75
2023/03/04 11:34:42;;;;;;;;;;;;;;;8.87;97.80;102723.03;5063281;28;19965;-75
2023/03/04 11:37:13;;;;;;;;;;;;;;;9.05;97.15;102715.00;5071658;28;20014;-76
2023/03/04 11:39:58;;;;;;;;;;;;;;;9.07;93.84;102707.56;5044114;28;20015;-75
2023/03/04 11:42:42;;;;;;;;;;;;;;;9.00;96.14;102700.91;5029172;28;19969;-74
2023/03/04 11:45:15;;;;;;;;;;;;;;;8.88;92.58;102704.78;5064589;28;19928;-74
2023/03/04 11:47:48;;;;;;;;;;;;;;;8.80;92.90;102699.16;5066482;28;20351;-75
2023/03/04 11:50:22;;;;;;;;;;;;;;;8.64;91.79;102699.69;5067811;28;19916;-76
2023/03/04 11:52:50;;;;;;;;;;;;;;;8.53;92.44;102699.81;5064967;28;19928;-74
2023/03/04 11:55:16;;;;;;;;;;;;;;;8.30;92.11;102700.13;5061175;28;20315;-76
2023/03/04 11:57:41;;;;;;;;;;;;;;;8.24;92.85;102698.84;5071892;28;19916;-75
2023/03/04 12:00:12;;;;;;;;;;;;;;;8.17;92.77;102692.16;5061321;28;19927;-75
2023/03/04 12:02:43;;;;;;;;;;;;;;;8.07;93.83;102701.31;5070518;28;19921;-75
2023/03/04 12:05:17;;;;;;;;;;;;;;;7.79;97.38;102702.00;5066814;28;19932;-76
2023/03/04 12:08:01;;;;;;;;;;;;;;;7.71;99.25;102699.06;5050769;28;20298;-75
2023/03/04 12:10:40;;;;;;;;;;;;;;;7.77;98.63;102696.69;5060932;28;20382;-76
2023/03/04 12:13:09;;;;;;;;;;;;;;;7.72;96.83;102685.31;5064936;28;20056;-77
2023/03/04 12:15:37;;;;;;;;;;;;;;;7.74;96.25;102679.72;5045932;28;19924;-75
2023/03/04 12:18:31;;;;;;;;;;;;;;;8.25;95.05;102673.25;5064952;28;20599;-76
2023/03/04 12:21:16;;;;;;;;;;;;;;;8.74;92.51;102661.47;5074324;28;19916;-75
2023/03/04 12:23:41;;;;;;;;;;;;;;;8.67;90.36;102665.75;5064270;28;19917;-76
2023/03/04 12:26:19;;;;;;;;;;;;;;;8.88;90.93;102667.41;5067764;28;20429;-75
2023/03/04 12:28:51;;;;;;;;;;;;;;;8.74;89.73;102656.88;5074612;28;19956;-75
2023/03/04 12:31:32;;;;;;;;;;;;;;;8.62;89.80;102657.13;5073173;28;19974;-75
2023/03/04 12:34:17;;;;;;;;;;;;;;;8.36;91.61;102667.69;5071005;28;20007;-75
2023/03/04 12:36:54;;;;;;;;;;;;;;;8.05;97.81;102667.81;5070396;28;20392;-75
2023/03/04 12:39:25;;;;;;;;;;;;;;;7.80;100.00;102665.53;5072337;28;19920;-76
2023/03/04 12:42:03;;;;;;;;;;;;;;;7.79;100.00;102661.94;5064247;28;19967;-75
2023/03/04 12:44:32;;;;;;;;;;;;;;;7.90;100.00;102652.81;5070595;28;20430;-75
2023/03/04 12:47:10;;;;;;;;;;;;;;;7.91;100.00;102649.09;5052143;28;20338;-75